Terminal Aerodrome Forecast
Issued by NWS Amarillo, TX

Home | Current Version | Previous Version | Text Only | Print | Product List | Glossary On
Versions: 1 2 3 4 5 6 7 8 9 10 11 12 13 14 15 16 17 18 19 20 21 22
550
FTUS44 KAMA 042059 AAA
TAFAMA
TAF AMD
KAMA 042059Z 0421/0518 30005KT P6SM SKC
     FM050000 20008KT P6SM SKC
     FM051200 21014KT P6SM FEW250=

USA.gov is the U.S. government's official web portal to all federal, state and local government web resources and services.